createdAt,value
2023-05-18T00:01:31.761Z,10.96
2023-05-18T00:04:04.306Z,10.96
2023-05-18T00:06:35.158Z,10.95
2023-05-18T00:09:04.675Z,10.94
2023-05-18T00:11:39.748Z,10.95
2023-05-18T00:14:09.434Z,10.96
2023-05-18T00:16:38.757Z,10.97
2023-05-18T00:19:09.666Z,10.96
2023-05-18T00:21:42.052Z,10.96
2023-05-18T00:24:12.320Z,10.96
2023-05-18T00:26:42.812Z,10.94
2023-05-18T00:29:15.723Z,10.94
2023-05-18T00:31:45.639Z,10.94
2023-05-18T00:34:16.862Z,10.92
2023-05-18T00:36:50.431Z,10.92
2023-05-18T00:39:21.034Z,10.93
2023-05-18T00:41:51.318Z,10.93
2023-05-18T00:44:20.962Z,10.93
2023-05-18T00:46:52.740Z,10.93
2023-05-18T00:49:24.522Z,10.93
2023-05-18T00:51:58.802Z,10.91
2023-05-18T00:54:29.683Z,10.90
2023-05-18T00:57:02.322Z,10.90
2023-05-18T00:59:32.848Z,10.87
2023-05-18T01:02:03.345Z,10.85
2023-05-18T01:04:34.400Z,10.86
2023-05-18T01:07:07.706Z,10.87
2023-05-18T01:09:38.666Z,10.87
2023-05-18T01:12:20.415Z,10.87
2023-05-18T01:14:56.692Z,10.87
2023-05-18T01:17:45.177Z,10.87
2023-05-18T01:20:24.041Z,10.85
2023-05-18T01:23:17.917Z,10.85
2023-05-18T01:25:58.694Z,10.86
2023-05-18T01:28:35.018Z,10.85
2023-05-18T01:31:05.802Z,10.85
2023-05-18T01:33:37.540Z,10.86
2023-05-18T01:36:07.615Z,10.85
2023-05-18T01:38:39.032Z,10.84
2023-05-18T01:41:17.199Z,10.81
2023-05-18T01:43:55.440Z,10.82
2023-05-18T01:46:37.093Z,10.83
2023-05-18T01:49:14.598Z,10.84
2023-05-18T01:51:48.131Z,10.84
2023-05-18T01:54:21.397Z,10.84
2023-05-18T01:56:54.055Z,10.85
2023-05-18T01:59:26.439Z,10.83
2023-05-18T02:02:00.677Z,10.85
2023-05-18T02:04:31.118Z,10.86
2023-05-18T02:07:00.584Z,10.86
2023-05-18T02:09:30.550Z,10.87
2023-05-18T02:11:59.507Z,10.88
2023-05-18T02:14:31.894Z,10.90
2023-05-18T02:17:01.501Z,10.91
2023-05-18T02:19:32.692Z,10.91
2023-05-18T02:22:02.803Z,10.92
2023-05-18T02:24:41.295Z,10.93
2023-05-18T02:27:11.947Z,10.93
2023-05-18T02:29:48.470Z,10.92
2023-05-18T02:32:18.981Z,10.92
2023-05-18T02:34:50.399Z,10.91
2023-05-18T02:37:23.490Z,10.90
2023-05-18T02:39:54.042Z,10.90
2023-05-18T02:42:26.861Z,10.89
2023-05-18T02:44:58.914Z,10.88
2023-05-18T02:47:29.212Z,10.87
2023-05-18T02:49:59.217Z,10.86
2023-05-18T02:52:30.721Z,10.87
2023-05-18T02:54:59.618Z,10.84
2023-05-18T02:57:29.664Z,10.83
2023-05-18T03:00:00.361Z,10.82
2023-05-18T03:02:31.037Z,10.81
2023-05-18T03:05:00.621Z,10.78
2023-05-18T03:07:29.933Z,10.78
2023-05-18T03:09:59.905Z,10.78
2023-05-18T03:12:29.553Z,10.78
2023-05-18T03:15:00.359Z,10.77
2023-05-18T03:17:29.924Z,10.77
2023-05-18T03:19:58.884Z,10.76
2023-05-18T03:22:28.824Z,10.75
2023-05-18T03:24:58.114Z,10.71
2023-05-18T03:27:28.049Z,10.69
2023-05-18T03:29:58.969Z,10.69
2023-05-18T03:32:29.321Z,10.69
2023-05-18T03:35:01.940Z,10.69
2023-05-18T03:37:32.688Z,10.70
2023-05-18T03:40:12.065Z,10.69
2023-05-18T03:42:44.777Z,10.68
2023-05-18T03:45:16.374Z,10.71
2023-05-18T03:47:46.176Z,10.74
2023-05-18T03:50:20.669Z,10.74
2023-05-18T03:52:53.250Z,10.77
2023-05-18T03:55:26.751Z,10.80
2023-05-18T03:57:57.106Z,10.83
2023-05-18T04:00:30.485Z,10.86
2023-05-18T04:02:59.469Z,10.89
2023-05-18T04:05:29.178Z,10.92
2023-05-18T04:07:58.828Z,10.93
2023-05-18T04:10:30.702Z,10.96
2023-05-18T04:13:00.053Z,10.99
2023-05-18T04:15:31.358Z,11.01
2023-05-18T04:18:03.380Z,11.05
2023-05-18T04:20:33.760Z,11.09
2023-05-18T04:23:04.874Z,11.11
2023-05-18T04:25:39.490Z,11.15
2023-05-18T04:28:10.352Z,11.19
2023-05-18T04:30:41.929Z,11.25
2023-05-18T04:33:13.071Z,11.29
2023-05-18T04:35:43.358Z,11.34
2023-05-18T04:38:15.679Z,11.39
2023-05-18T04:40:45.132Z,11.43
2023-05-18T04:43:14.730Z,11.46
2023-05-18T04:45:47.267Z,11.47
2023-05-18T04:48:17.870Z,11.51
2023-05-18T04:50:48.556Z,11.57
2023-05-18T04:53:19.612Z,11.64
2023-05-18T04:55:52.444Z,11.70
2023-05-18T04:58:22.665Z,11.75
2023-05-18T05:00:53.473Z,11.83
2023-05-18T05:03:22.964Z,11.89
2023-05-18T05:05:54.665Z,12.00
2023-05-18T05:08:25.342Z,12.10
2023-05-18T05:10:55.172Z,12.18
2023-05-18T05:13:27.152Z,12.29
2023-05-18T05:15:58.734Z,12.34
2023-05-18T05:18:30.320Z,12.39
2023-05-18T05:21:00.827Z,12.44
2023-05-18T05:23:30.938Z,12.48
2023-05-18T05:25:59.989Z,12.54
2023-05-18T05:28:29.635Z,12.61
2023-05-18T05:31:00.506Z,12.68
2023-05-18T05:33:30.250Z,12.73
2023-05-18T05:35:59.961Z,12.78
2023-05-18T05:38:31.701Z,12.85
2023-05-18T05:41:01.170Z,12.94
2023-05-18T05:43:34.663Z,12.96
2023-05-18T05:46:06.878Z,12.97
2023-05-18T05:48:39.616Z,13.01
2023-05-18T05:51:12.061Z,13.03
2023-05-18T05:53:44.156Z,13.02
2023-05-18T05:56:13.779Z,12.98
2023-05-18T05:58:44.699Z,13.01
2023-05-18T06:01:15.609Z,13.05
2023-05-18T06:03:45.764Z,13.04
2023-05-18T06:06:15.575Z,13.02
2023-05-18T06:08:44.974Z,13.01
2023-05-18T06:11:14.671Z,13.02
2023-05-18T06:13:44.270Z,13.03
2023-05-18T06:16:17.255Z,13.08
2023-05-18T06:18:47.156Z,13.14
2023-05-18T06:21:16.796Z,13.19
2023-05-18T06:23:46.098Z,13.27
2023-05-18T06:26:29.274Z,13.39
2023-05-18T06:29:00.309Z,13.51
2023-05-18T06:31:33.319Z,13.63
2023-05-18T06:34:03.258Z,13.70
2023-05-18T06:36:33.454Z,13.80
2023-05-18T06:39:03.187Z,13.92
2023-05-18T06:41:32.585Z,14.06
2023-05-18T06:44:02.603Z,14.18
2023-05-18T06:46:34.304Z,14.38
2023-05-18T06:49:05.430Z,14.58
2023-05-18T06:51:35.718Z,14.72
2023-05-18T06:54:05.216Z,14.87
2023-05-18T06:56:35.011Z,14.95
2023-05-18T06:59:04.838Z,14.97
2023-05-18T07:01:36.685Z,14.94
2023-05-18T07:04:06.856Z,14.97
2023-05-18T07:06:36.822Z,15.07
2023-05-18T07:09:07.874Z,15.25
2023-05-18T07:11:37.947Z,15.49
2023-05-18T07:14:07.140Z,15.62
2023-05-18T07:16:40.885Z,15.63
2023-05-18T07:19:09.989Z,15.71
2023-05-18T07:21:38.622Z,15.86
2023-05-18T07:24:08.499Z,16.01
2023-05-18T07:26:38.236Z,16.09
2023-05-18T07:29:07.883Z,16.13
2023-05-18T07:31:46.460Z,16.16
2023-05-18T07:34:15.416Z,16.21
2023-05-18T07:36:46.073Z,16.23
2023-05-18T07:39:19.812Z,16.17
2023-05-18T07:41:53.592Z,16.20
2023-05-18T07:44:28.096Z,16.29
2023-05-18T07:47:01.690Z,16.34
2023-05-18T07:49:34.662Z,16.42
2023-05-18T07:52:04.140Z,16.51
2023-05-18T07:54:35.917Z,16.62
2023-05-18T07:57:06.084Z,16.59
2023-05-18T07:59:34.707Z,16.65
2023-05-18T08:02:06.852Z,16.67
2023-05-18T08:04:37.491Z,16.67
2023-05-18T08:07:07.307Z,16.71
2023-05-18T08:09:37.972Z,16.73
2023-05-18T08:12:10.015Z,16.72
2023-05-18T08:14:45.368Z,16.68
2023-05-18T08:17:16.413Z,16.64
2023-05-18T08:19:56.316Z,16.70
2023-05-18T08:22:25.632Z,16.78
2023-05-18T08:24:56.786Z,16.66
2023-05-18T08:27:26.922Z,16.62
2023-05-18T08:29:56.728Z,16.62
2023-05-18T08:32:32.703Z,16.55
2023-05-18T08:35:02.362Z,16.44
2023-05-18T08:37:33.682Z,16.36
2023-05-18T08:40:04.875Z,16.35
2023-05-18T08:42:50.058Z,16.39
2023-05-18T08:45:30.768Z,16.56
2023-05-18T08:48:04.764Z,16.70
2023-05-18T08:50:38.208Z,16.76
2023-05-18T08:53:08.827Z,16.95
2023-05-18T08:55:39.093Z,16.99
2023-05-18T08:58:11.360Z,16.97
2023-05-18T09:00:45.492Z,17.01
2023-05-18T09:03:16.888Z,17.03
2023-05-18T09:05:48.478Z,17.11
2023-05-18T09:08:27.002Z,17.10
2023-05-18T09:11:00.681Z,17.06
2023-05-18T09:13:32.384Z,17.08
2023-05-18T09:16:03.342Z,17.24
2023-05-18T09:18:35.866Z,17.52
2023-05-18T09:21:11.315Z,17.86
2023-05-18T09:23:43.726Z,18.18
2023-05-18T09:26:13.879Z,18.48
2023-05-18T09:28:45.996Z,18.67
2023-05-18T09:31:24.833Z,18.84
2023-05-18T09:33:58.285Z,19.01
2023-05-18T09:36:30.701Z,19.05
2023-05-18T09:39:00.946Z,19.17
2023-05-18T09:41:31.372Z,19.21
2023-05-18T09:44:05.578Z,19.22
2023-05-18T09:46:38.086Z,19.25
2023-05-18T09:49:12.163Z,19.37
2023-05-18T09:51:46.535Z,19.35
2023-05-18T09:54:16.319Z,19.29
2023-05-18T09:57:02.038Z,19.34
2023-05-18T09:59:42.594Z,19.36
2023-05-18T10:02:30.575Z,19.43
2023-05-18T10:05:03.837Z,19.37
2023-05-18T10:07:38.252Z,19.45
2023-05-18T10:10:10.432Z,19.76
2023-05-18T10:12:45.134Z,20.10
2023-05-18T10:15:18.458Z,20.36
2023-05-18T10:17:57.571Z,20.57
2023-05-18T10:20:31.949Z,20.86
2023-05-18T10:23:07.193Z,21.09
2023-05-18T10:25:39.102Z,21.33
2023-05-18T10:28:14.469Z,21.57
2023-05-18T10:30:45.592Z,21.73
2023-05-18T10:33:28.359Z,21.85
2023-05-18T10:36:02.308Z,21.68
2023-05-18T10:38:33.128Z,21.52
2023-05-18T10:41:06.684Z,21.66
2023-05-18T10:43:40.648Z,21.95
2023-05-18T10:46:12.460Z,22.18
2023-05-18T10:48:46.820Z,22.30
2023-05-18T10:51:23.526Z,22.49
2023-05-18T10:53:56.456Z,22.74
2023-05-18T10:56:27.236Z,22.88
2023-05-18T10:59:00.558Z,23.14
2023-05-18T11:01:30.235Z,23.34
2023-05-18T11:04:08.842Z,23.37
2023-05-18T11:06:39.886Z,23.44
2023-05-18T11:09:10.195Z,23.49
2023-05-18T11:12:03.973Z,23.40
2023-05-18T11:14:37.642Z,23.35
2023-05-18T11:17:33.029Z,22.97
2023-05-18T11:20:18.833Z,22.78
2023-05-18T11:22:53.521Z,22.75
2023-05-18T11:25:51.600Z,22.72
2023-05-18T11:28:26.189Z,22.93
2023-05-18T11:30:58.346Z,23.15
2023-05-18T11:33:31.996Z,23.28
2023-05-18T11:36:11.874Z,23.46
2023-05-18T11:39:07.122Z,23.67
2023-05-18T11:41:39.510Z,23.98
2023-05-18T11:44:20.340Z,24.14
2023-05-18T11:47:01.686Z,24.36
2023-05-18T11:49:33.998Z,24.69
2023-05-18T11:52:10.082Z,25.06
2023-05-18T11:54:47.605Z,25.24
2023-05-18T12:00:12.137Z,24.68
2023-05-18T12:02:46.845Z,24.93
2023-05-18T12:05:18.062Z,25.12
2023-05-18T12:07:57.566Z,25.38
2023-05-18T12:10:32.414Z,25.66
2023-05-18T12:13:05.187Z,26.22
2023-05-18T12:15:36.067Z,26.80
2023-05-18T12:18:08.298Z,27.26
2023-05-18T12:20:41.557Z,27.64
2023-05-18T12:23:15.179Z,27.91
2023-05-18T12:25:51.206Z,28.00
2023-05-18T12:28:29.792Z,28.02
2023-05-18T12:31:07.710Z,27.76
2023-05-18T12:33:38.243Z,27.04
2023-05-18T12:36:13.459Z,26.49
2023-05-18T12:38:44.648Z,26.62
2023-05-18T12:41:27.149Z,27.07
2023-05-18T12:43:59.385Z,27.52
2023-05-18T12:46:29.581Z,28.03
2023-05-18T12:49:06.691Z,28.19
2023-05-18T12:51:38.756Z,28.04
2023-05-18T12:54:11.139Z,27.69
2023-05-18T12:57:01.884Z,27.61
2023-05-18T12:59:32.326Z,28.06
2023-05-18T13:02:03.366Z,28.33
2023-05-18T13:04:37.375Z,28.35
2023-05-18T13:07:08.040Z,27.76
2023-05-18T13:09:37.407Z,27.30
2023-05-18T13:12:10.030Z,27.75
2023-05-18T13:14:41.395Z,27.40
2023-05-18T13:17:12.221Z,27.44
2023-05-18T13:19:41.838Z,27.82
2023-05-18T13:22:11.434Z,27.49
2023-05-18T13:24:43.100Z,27.07
2023-05-18T13:27:14.795Z,26.47
2023-05-18T13:29:44.907Z,26.96
2023-05-18T13:32:15.202Z,27.59
2023-05-18T13:34:44.871Z,28.23
2023-05-18T13:37:14.911Z,28.81
2023-05-18T13:39:46.122Z,29.15
2023-05-18T13:42:21.879Z,29.26
2023-05-18T13:44:51.818Z,29.45
2023-05-18T13:47:23.124Z,29.37
2023-05-18T13:49:57.347Z,28.65
2023-05-18T13:52:28.221Z,28.02
2023-05-18T13:54:57.812Z,28.24
2023-05-18T13:57:31.483Z,28.59
2023-05-18T14:00:04.682Z,29.15
2023-05-18T14:02:35.478Z,29.49
2023-05-18T14:05:08.844Z,30.13
2023-05-18T14:07:41.481Z,30.47
2023-05-18T14:10:14.146Z,30.22
2023-05-18T14:12:45.745Z,30.05
2023-05-18T14:15:16.578Z,29.46
2023-05-18T14:17:47.722Z,29.10
2023-05-18T14:20:16.572Z,28.51
2023-05-18T14:22:46.476Z,28.47
2023-05-18T14:25:16.830Z,28.60
2023-05-18T14:27:50.408Z,28.13
2023-05-18T14:30:20.490Z,28.10
2023-05-18T14:32:50.622Z,28.09
2023-05-18T14:35:29.590Z,28.35
2023-05-18T14:38:00.890Z,28.84
2023-05-18T14:40:30.776Z,29.09
2023-05-18T14:43:02.411Z,28.95
2023-05-18T14:45:32.657Z,28.95
2023-05-18T14:48:05.238Z,29.03
2023-05-18T14:50:38.222Z,28.96
2023-05-18T14:53:08.293Z,28.61
2023-05-18T14:55:39.812Z,28.46
2023-05-18T14:58:17.238Z,29.14
2023-05-18T15:00:47.430Z,29.61
2023-05-18T15:03:21.444Z,29.67
2023-05-18T15:05:52.385Z,29.67
2023-05-18T15:08:24.879Z,29.64
2023-05-18T15:10:56.993Z,29.45
2023-05-18T15:13:34.258Z,29.48
2023-05-18T15:16:03.536Z,29.37
2023-05-18T15:18:34.484Z,29.33
2023-05-18T15:21:03.954Z,29.31
2023-05-18T15:24:32.142Z,28.94
2023-05-18T15:27:04.088Z,28.58
2023-05-18T15:29:43.211Z,27.88
2023-05-18T15:32:12.624Z,27.32
2023-05-18T15:34:42.180Z,27.23
2023-05-18T15:56:23.658Z,27.92
2023-05-18T15:58:52.597Z,27.81
2023-05-18T16:01:21.261Z,27.77
2023-05-18T16:03:49.963Z,28.02
2023-05-18T16:06:19.247Z,28.73
2023-05-18T16:08:47.706Z,29.59
2023-05-18T16:11:16.239Z,30.20
2023-05-18T16:13:47.789Z,29.68
2023-05-18T16:16:16.300Z,28.79
2023-05-18T16:18:44.818Z,28.46
2023-05-18T16:21:13.336Z,28.81
2023-05-18T16:23:42.465Z,29.48
2023-05-18T16:26:11.135Z,30.02
2023-05-18T16:28:40.148Z,30.40
2023-05-18T16:31:12.004Z,30.67
2023-05-18T16:33:41.373Z,31.04
2023-05-18T16:36:10.361Z,31.41
2023-05-18T16:38:39.286Z,31.73
2023-05-18T16:41:08.742Z,31.65
2023-05-18T16:43:39.107Z,31.72
2023-05-18T16:46:10.143Z,31.95
2023-05-18T16:48:39.048Z,31.99
2023-05-18T16:51:08.013Z,32.12
2023-05-18T16:53:37.086Z,32.41
2023-05-18T16:56:07.262Z,32.71
2023-05-18T16:58:35.821Z,32.61
2023-05-18T17:01:15.881Z,32.29
2023-05-18T17:03:55.343Z,32.40
2023-05-18T17:06:24.077Z,32.68
2023-05-18T17:08:57.639Z,32.64
2023-05-18T17:11:27.827Z,32.60
2023-05-18T17:13:57.902Z,32.41
2023-05-18T17:16:28.444Z,32.29
2023-05-18T17:18:58.663Z,32.28
2023-05-18T17:21:28.348Z,32.16
2023-05-18T17:23:56.954Z,32.11
2023-05-18T17:26:30.384Z,31.95
2023-05-18T17:28:58.950Z,31.95
2023-05-18T17:31:27.765Z,31.91
2023-05-18T17:33:57.771Z,31.61
2023-05-18T17:36:26.918Z,31.55
2023-05-18T17:38:56.295Z,31.37
2023-05-18T17:41:25.967Z,31.26
2023-05-18T17:43:54.535Z,31.01
2023-05-18T17:46:23.047Z,30.77
2023-05-18T17:48:51.499Z,30.68
2023-05-18T17:51:21.987Z,30.76
2023-05-18T17:53:50.517Z,30.67
2023-05-18T17:56:19.013Z,30.49
2023-05-18T17:58:47.786Z,30.32
2023-05-18T18:01:16.268Z,30.04
2023-05-18T18:03:44.770Z,29.95
2023-05-18T18:06:13.339Z,29.82
2023-05-18T18:08:43.131Z,29.55
2023-05-18T18:11:11.530Z,28.93
2023-05-18T18:13:39.959Z,27.92
2023-05-18T18:16:09.079Z,26.93
2023-05-18T18:18:38.251Z,26.29
2023-05-18T18:21:07.715Z,25.61
2023-05-18T18:23:37.070Z,24.79
2023-05-18T18:26:08.031Z,24.06
2023-05-18T18:28:37.106Z,23.56
2023-05-18T18:31:07.226Z,22.96
2023-05-18T18:33:36.700Z,22.16
2023-05-18T18:36:07.409Z,21.50
2023-05-18T18:38:36.896Z,20.77
2023-05-18T18:41:07.197Z,20.14
2023-05-18T18:43:38.811Z,19.56
2023-05-18T18:46:10.703Z,19.05
2023-05-18T18:48:40.397Z,18.58
2023-05-18T18:51:08.955Z,18.16
2023-05-18T18:53:37.354Z,17.83
2023-05-18T18:56:07.468Z,17.50
2023-05-18T18:58:36.030Z,17.22
2023-05-18T19:01:04.688Z,16.98
2023-05-18T19:03:33.311Z,16.75
2023-05-18T19:06:02.190Z,16.51
2023-05-18T19:08:31.592Z,16.24
2023-05-18T19:10:59.952Z,16.03
2023-05-18T19:13:29.739Z,15.81
2023-05-18T19:15:58.253Z,15.58
2023-05-18T19:18:26.815Z,15.40
2023-05-18T19:20:55.188Z,15.22
2023-05-18T19:23:23.628Z,15.03
2023-05-18T19:25:51.972Z,14.84
2023-05-18T19:28:20.401Z,14.67
2023-05-18T19:30:50.084Z,14.48
2023-05-18T19:33:18.484Z,14.31
2023-05-18T19:35:46.974Z,14.17
2023-05-18T19:38:15.705Z,14.02
2023-05-18T19:40:44.026Z,13.87
2023-05-18T19:43:12.438Z,13.76
2023-05-18T19:45:41.043Z,13.64
2023-05-18T19:48:11.108Z,13.49
2023-05-18T19:50:39.591Z,13.37
2023-05-18T19:53:08.246Z,13.25
2023-05-18T19:55:36.929Z,13.14
2023-05-18T19:58:05.372Z,13.04
2023-05-18T20:00:34.579Z,12.94
2023-05-18T20:03:04.012Z,12.84
2023-05-18T20:05:34.532Z,12.75
2023-05-18T20:08:03.276Z,12.67
2023-05-18T20:10:31.968Z,12.59
2023-05-18T20:13:00.998Z,12.48
2023-05-18T20:15:32.384Z,12.43
2023-05-18T20:18:01.949Z,12.36
2023-05-18T20:20:33.473Z,12.30
2023-05-18T20:23:03.814Z,12.22
2023-05-18T20:25:34.998Z,12.16
2023-05-18T20:28:07.398Z,12.12
2023-05-18T20:30:36.475Z,12.05
2023-05-18T20:33:05.443Z,12.01
2023-05-18T20:35:34.710Z,11.96
2023-05-18T20:38:04.893Z,11.91
2023-05-18T20:40:33.712Z,11.86
2023-05-18T20:43:02.420Z,11.80
2023-05-18T20:45:31.479Z,11.74
2023-05-18T20:48:00.808Z,11.69
2023-05-18T20:50:29.408Z,11.64
2023-05-18T20:52:57.913Z,11.61
2023-05-18T20:55:29.108Z,11.56
2023-05-18T20:57:57.744Z,11.51
2023-05-18T21:00:26.119Z,11.48
2023-05-18T21:02:54.526Z,11.44
2023-05-18T21:05:23.407Z,11.41
2023-05-18T21:07:53.586Z,11.37
2023-05-18T21:10:22.052Z,11.32
2023-05-18T21:12:51.817Z,11.29
2023-05-18T21:15:20.346Z,11.27
2023-05-18T21:17:48.782Z,11.24
2023-05-18T21:20:17.233Z,11.21
2023-05-18T21:22:45.687Z,11.17
2023-05-18T21:25:14.093Z,11.14
2023-05-18T21:27:42.600Z,11.11
2023-05-18T21:30:15.782Z,11.10
2023-05-18T21:32:44.695Z,11.05
2023-05-18T21:35:13.242Z,11.01
2023-05-18T21:37:41.857Z,10.98
2023-05-18T21:40:11.282Z,10.94
2023-05-18T21:42:45.041Z,10.89
2023-05-18T21:45:15.093Z,10.87
2023-05-18T21:47:43.584Z,10.83
2023-05-18T21:50:12.763Z,10.78
2023-05-18T21:52:41.452Z,10.76
2023-05-18T21:55:11.092Z,10.72
2023-05-18T21:57:39.507Z,10.67
2023-05-18T22:00:12.333Z,10.62
2023-05-18T22:02:42.194Z,10.57
2023-05-18T22:05:11.414Z,10.55
2023-05-18T22:07:42.448Z,10.51
2023-05-18T22:10:11.734Z,10.48
2023-05-18T22:12:41.147Z,10.43
2023-05-18T22:15:11.659Z,10.39
2023-05-18T22:17:41.647Z,10.35
2023-05-18T22:20:11.711Z,10.33
2023-05-18T22:22:41.414Z,10.29
2023-05-18T22:25:10.829Z,10.27
2023-05-18T22:27:39.339Z,10.23
2023-05-18T22:30:09.089Z,10.21
2023-05-18T22:32:38.272Z,10.19
2023-05-18T22:35:10.770Z,10.16
2023-05-18T22:37:39.150Z,10.13
2023-05-18T22:40:09.932Z,10.10
2023-05-18T22:42:38.513Z,10.09
2023-05-18T22:45:08.420Z,10.08
2023-05-18T22:47:39.078Z,10.07
2023-05-18T22:50:10.759Z,10.07
2023-05-18T22:52:40.623Z,10.05
2023-05-18T22:55:13.162Z,10.03
2023-05-18T22:57:41.641Z,10.01
2023-05-18T23:00:11.940Z,10.01
2023-05-18T23:02:41.098Z,10.00
2023-05-18T23:05:11.404Z,9.99
2023-05-18T23:07:41.897Z,9.97
2023-05-18T23:10:12.349Z,9.95
2023-05-18T23:12:45.628Z,9.91
2023-05-18T23:15:14.288Z,9.90
2023-05-18T23:17:42.718Z,9.89
2023-05-18T23:20:14.024Z,9.88
2023-05-18T23:22:42.445Z,9.88
2023-05-18T23:25:11.276Z,9.85
2023-05-18T23:27:39.794Z,9.85
2023-05-18T23:30:09.515Z,9.81
2023-05-18T23:32:38.998Z,9.79
2023-05-18T23:35:10.120Z,9.79
2023-05-18T23:37:43.259Z,9.77
2023-05-18T23:40:13.910Z,9.75
2023-05-18T23:42:43.066Z,9.74
2023-05-18T23:45:13.455Z,9.69
2023-05-18T23:47:42.621Z,9.67
2023-05-18T23:50:12.551Z,9.62
2023-05-18T23:52:43.909Z,9.62
2023-05-18T23:55:13.705Z,9.58
2023-05-18T23:57:42.820Z,9.55
